createdAt,value
2023-03-21T18:15:19.663Z,18.10
2023-03-21T18:15:31.009Z,21.30
2023-03-21T18:15:39.747Z,23.00
2023-03-21T18:15:55.171Z,23.20
2023-03-21T18:16:04.736Z,21.40
2023-03-21T18:16:14.634Z,21.30
2023-03-21T18:16:24.822Z,22.20
2023-03-21T18:16:32.529Z,24.10
2023-03-21T18:16:42.138Z,23.70
2023-03-21T18:16:52.241Z,23.60
2023-03-21T18:17:02.213Z,23.50
2023-03-21T18:17:12.371Z,24.20
2023-03-21T18:17:22.428Z,23.20
2023-03-21T18:17:32.574Z,20.40
2023-03-21T18:17:42.818Z,22.90
2023-03-21T18:17:52.917Z,25.70
2023-03-21T18:18:03.212Z,28.50
2023-03-21T18:18:14.051Z,25.50
2023-03-21T18:18:23.446Z,23.00
2023-03-21T18:18:33.887Z,20.30
2023-03-21T18:18:44.490Z,19.90
2023-03-21T18:18:53.703Z,20.90
2023-03-21T18:19:04.317Z,20.80
2023-03-21T18:19:14.865Z,20.20
2023-03-21T18:19:24.209Z,18.90
2023-03-21T18:19:34.516Z,18.50
2023-03-21T18:19:46.617Z,19.00
2023-03-21T18:19:54.605Z,19.00
2023-03-21T18:20:09.695Z,19.50
2023-03-21T18:20:15.530Z,20.00
2023-03-21T18:20:24.970Z,19.70
2023-03-21T18:20:51.070Z,19.80
2023-03-21T18:20:58.320Z,19.20
2023-03-21T18:21:04.247Z,19.30
2023-03-21T18:21:14.419Z,19.40
2023-03-21T18:21:26.500Z,20.30
2023-03-21T18:21:36.065Z,20.20
2023-03-21T18:21:45.730Z,20.50
2023-03-21T18:21:55.001Z,20.10
2023-03-21T18:22:05.029Z,20.50
2023-03-21T18:22:15.931Z,20.10
2023-03-21T18:22:25.275Z,19.50
2023-03-21T18:22:35.391Z,18.60
2023-03-21T18:22:45.596Z,18.60
2023-03-21T18:22:56.497Z,18.70
2023-03-21T18:23:05.859Z,19.20
2023-03-21T18:23:15.946Z,18.90
2023-03-21T18:23:25.995Z,18.60
2023-03-21T18:23:36.992Z,18.10
2023-03-21T18:23:46.207Z,17.80
2023-03-21T18:23:56.467Z,17.40
2023-03-21T18:24:07.465Z,16.50
2023-03-21T18:24:16.657Z,17.10
2023-03-21T18:24:27.260Z,16.50
2023-03-21T18:24:38.203Z,16.70
2023-03-21T18:24:47.029Z,16.10
2023-03-21T18:24:57.547Z,21.30
2023-03-21T18:25:07.276Z,23.70
2023-03-21T18:25:18.547Z,23.90
2023-03-21T18:25:27.455Z,19.50
2023-03-21T18:25:38.480Z,16.10
2023-03-21T18:25:47.797Z,15.90
2023-03-21T18:25:57.921Z,16.40
2023-03-21T18:26:08.870Z,17.30
2023-03-21T18:26:18.112Z,16.70
2023-03-21T18:26:28.310Z,16.80
2023-03-21T18:26:38.365Z,16.40
2023-03-21T18:26:48.681Z,18.30
2023-03-21T18:26:58.728Z,27.10
2023-03-21T18:27:08.733Z,30.40
2023-03-21T18:27:19.018Z,33.10
2023-03-21T18:27:32.907Z,28.10
2023-03-21T18:28:02.032Z,31.30
2023-03-21T18:28:19.392Z,31.30
2023-03-21T18:28:26.000Z,29.60
2023-03-21T18:28:35.145Z,25.40
2023-03-21T18:28:45.367Z,23.40
2023-03-21T18:29:53.510Z,21.10
2023-03-21T18:30:44.566Z,18.20
2023-03-21T18:31:18.234Z,15.30
2023-03-21T18:31:25.131Z,13.80
2023-03-21T18:31:30.767Z,15.90
2023-03-21T18:31:41.269Z,14.60
2023-03-21T18:32:05.082Z,15.20
2023-03-21T18:32:11.329Z,15.80
2023-03-21T18:32:17.126Z,14.20
2023-03-21T18:32:26.921Z,14.00
2023-03-21T18:32:37.044Z,14.50
2023-03-21T18:32:47.204Z,15.50
2023-03-21T18:32:58.369Z,15.50
2023-03-21T18:33:07.341Z,15.10
2023-03-21T18:33:17.600Z,13.80
2023-03-21T18:33:28.455Z,13.10
2023-03-21T18:33:37.682Z,12.70
2023-03-21T18:33:47.987Z,12.80
2023-03-21T18:33:58.963Z,12.90
2023-03-21T18:34:08.162Z,13.80
2023-03-21T18:34:18.323Z,14.50
2023-03-21T18:34:29.537Z,14.10
2023-03-21T18:34:38.564Z,13.30
2023-03-21T18:34:48.834Z,13.20
2023-03-21T18:34:59.425Z,12.80
2023-03-21T18:35:09.008Z,12.10
2023-03-21T18:35:18.973Z,11.40
2023-03-21T18:36:00.364Z,12.40
2023-03-21T18:36:28.914Z,14.20
2023-03-21T18:36:35.054Z,17.50
2023-03-21T18:36:44.985Z,16.60
2023-03-21T18:36:55.145Z,16.00
2023-03-21T18:37:05.115Z,15.00
2023-03-21T18:37:15.250Z,16.10
2023-03-21T18:37:25.452Z,15.50
2023-03-21T18:37:35.901Z,15.60
2023-03-21T18:37:46.452Z,16.80
2023-03-21T18:37:55.815Z,21.10
2023-03-21T18:38:05.939Z,25.70
2023-03-21T18:38:16.118Z,28.30
2023-03-21T18:38:26.866Z,29.00
2023-03-21T18:38:36.390Z,28.90
2023-03-21T18:38:46.419Z,25.70
2023-03-21T18:38:56.651Z,21.50
2023-03-21T18:39:06.643Z,18.80
2023-03-21T18:39:16.818Z,19.00
2023-03-21T18:39:27.937Z,19.90
2023-03-21T18:39:37.024Z,19.00
2023-03-21T18:39:47.225Z,18.80
2023-03-21T18:39:57.908Z,18.20
2023-03-21T18:40:07.308Z,18.20
2023-03-21T18:40:18.441Z,16.90
2023-03-21T18:40:27.546Z,17.40
2023-03-21T18:40:38.185Z,17.40
2023-03-21T18:40:47.791Z,18.90
2023-03-21T18:40:59.343Z,19.00
2023-03-21T18:41:08.092Z,19.60
2023-03-21T18:41:18.920Z,18.80
2023-03-21T18:41:28.305Z,18.50
2023-03-21T18:41:38.946Z,16.30
2023-03-21T18:41:49.529Z,14.20
2023-03-21T18:41:59.055Z,14.00
2023-03-21T18:42:17.217Z,15.00
2023-03-21T18:42:23.533Z,14.90
2023-03-21T18:42:31.083Z,14.40
2023-03-21T18:42:39.911Z,14.70
2023-03-21T18:43:45.888Z,15.40
2023-03-21T18:44:14.229Z,14.70
2023-03-21T18:44:24.986Z,11.90
2023-03-21T18:44:31.026Z,21.70
2023-03-21T18:44:41.050Z,22.20
2023-03-21T18:44:51.485Z,20.30
2023-03-21T18:45:01.080Z,15.80
2023-03-21T18:45:11.954Z,15.40
2023-03-21T18:45:21.346Z,15.10
2023-03-21T18:45:31.643Z,14.60
2023-03-21T18:45:41.717Z,15.40
2023-03-21T18:45:51.961Z,14.50
2023-03-21T18:46:01.934Z,14.70
2023-03-21T18:46:12.038Z,14.70
2023-03-21T18:46:22.908Z,15.10
2023-03-21T18:46:32.236Z,14.40
2023-03-21T18:46:42.525Z,14.00
2023-03-21T18:46:53.424Z,14.50
2023-03-21T18:47:02.716Z,15.90
2023-03-21T18:47:13.485Z,16.70
2023-03-21T18:47:22.877Z,18.00
2023-03-21T18:47:32.953Z,19.70
2023-03-21T18:47:43.168Z,19.50
2023-03-21T18:47:53.929Z,19.90
2023-03-21T18:48:03.462Z,20.00
2023-03-21T18:48:13.534Z,20.70
2023-03-21T18:48:24.077Z,19.80
2023-03-21T18:48:35.122Z,20.70
2023-03-21T18:48:43.902Z,22.10
2023-03-21T18:48:55.502Z,22.00
2023-03-21T18:49:33.914Z,21.50
2023-03-21T18:50:29.051Z,19.20
2023-03-21T18:50:34.746Z,16.00
2023-03-21T18:50:45.463Z,15.90
2023-03-21T18:50:54.931Z,16.30
2023-03-21T18:51:05.210Z,18.00
2023-03-21T18:51:15.269Z,19.90
2023-03-21T18:51:25.485Z,20.50
2023-03-21T18:51:35.839Z,19.20
2023-03-21T18:51:45.627Z,16.40
2023-03-21T18:51:55.731Z,17.40
2023-03-21T18:52:06.046Z,16.80
2023-03-21T18:52:16.591Z,16.80
2023-03-21T18:52:26.208Z,14.60
2023-03-21T18:52:36.663Z,13.30
2023-03-21T18:52:46.497Z,12.10
2023-03-21T18:52:57.348Z,11.50
2023-03-21T18:53:31.538Z,12.30
2023-03-21T18:53:39.108Z,12.40
2023-03-21T18:53:49.083Z,11.40
2023-03-21T18:54:00.808Z,11.90
2023-03-21T18:54:09.264Z,11.60
2023-03-21T18:54:17.748Z,11.60
2023-03-21T18:54:28.137Z,11.30
2023-03-21T18:54:38.121Z,11.40
2023-03-21T18:54:48.025Z,11.20
2023-03-21T18:54:58.246Z,11.50
2023-03-21T18:55:08.640Z,11.50
2023-03-21T18:55:18.978Z,11.90
2023-03-21T18:55:44.755Z,11.20
2023-03-21T18:55:57.364Z,10.80
2023-03-21T18:56:03.149Z,11.60
2023-03-21T18:56:46.825Z,11.90
2023-03-21T18:57:34.504Z,12.50
2023-03-21T18:58:23.927Z,9.90
2023-03-21T18:58:29.364Z,15.00
2023-03-21T18:58:39.584Z,15.60
2023-03-21T18:58:50.388Z,15.40
2023-03-21T18:58:59.686Z,16.10
2023-03-21T18:59:09.998Z,16.70
2023-03-21T18:59:21.301Z,17.10
2023-03-21T18:59:30.105Z,16.10
2023-03-21T18:59:40.227Z,15.50
2023-03-21T18:59:50.427Z,15.50
2023-03-21T19:00:00.814Z,16.20
2023-03-21T19:00:11.070Z,15.90
2023-03-21T19:00:20.948Z,15.40
2023-03-21T19:00:31.006Z,14.70
2023-03-21T19:00:42.660Z,15.40
2023-03-21T19:00:51.213Z,15.30
2023-03-21T19:01:04.583Z,15.80
2023-03-21T19:01:11.482Z,15.50
2023-03-21T19:01:21.701Z,15.70
2023-03-21T19:01:31.798Z,14.50
2023-03-21T19:01:42.247Z,12.70
2023-03-21T19:01:51.998Z,11.20
2023-03-21T19:02:02.913Z,11.70
2023-03-21T19:02:12.169Z,12.60
2023-03-21T19:02:22.610Z,12.50
2023-03-21T19:02:32.499Z,17.90
2023-03-21T19:02:46.698Z,18.00
2023-03-21T19:03:04.226Z,20.70
2023-03-21T19:03:36.335Z,15.80
2023-03-21T19:03:53.188Z,16.90
2023-03-21T19:04:29.692Z,20.60
2023-03-21T19:04:38.132Z,19.00
2023-03-21T19:04:45.442Z,18.60
2023-03-21T19:04:53.916Z,19.90
2023-03-21T19:05:04.003Z,23.40
2023-03-21T19:05:15.997Z,22.80
2023-03-21T19:05:24.415Z,20.70
2023-03-21T19:05:34.475Z,19.40
2023-03-21T19:05:44.832Z,19.80
2023-03-21T19:05:54.915Z,19.30
2023-03-21T19:06:05.353Z,24.80
2023-03-21T19:06:17.217Z,28.30
2023-03-21T19:06:25.108Z,32.10
2023-03-21T19:06:35.242Z,43.20
2023-03-21T19:06:45.507Z,59.30
2023-03-21T19:06:55.465Z,56.20
2023-03-21T19:07:05.618Z,28.70
2023-03-21T19:07:17.247Z,16.50
2023-03-21T19:07:25.744Z,18.30
2023-03-21T19:07:36.322Z,25.30
2023-03-21T19:07:47.154Z,25.20
2023-03-21T19:07:56.230Z,23.30
2023-03-21T19:08:06.394Z,15.60
2023-03-21T19:08:16.450Z,16.00
2023-03-21T19:08:27.758Z,14.60
2023-03-21T19:08:37.456Z,14.30
2023-03-21T19:08:46.823Z,13.40
2023-03-21T19:09:10.180Z,14.40
2023-03-21T19:09:15.926Z,17.20
2023-03-21T19:09:31.125Z,18.30
2023-03-21T19:09:58.055Z,18.50
2023-03-21T19:10:17.806Z,18.30
2023-03-21T19:10:23.914Z,15.90
2023-03-21T19:10:29.792Z,17.40
2023-03-21T19:10:40.787Z,17.20
2023-03-21T19:10:49.847Z,17.40
2023-03-21T19:11:03.676Z,17.20
2023-03-21T19:11:11.188Z,17.00
2023-03-21T19:11:20.891Z,16.50
2023-03-21T19:11:31.168Z,16.10
2023-03-21T19:11:40.540Z,16.70
2023-03-21T19:11:50.695Z,15.90
2023-03-21T19:12:01.927Z,16.40
2023-03-21T19:12:10.919Z,17.20
2023-03-21T19:12:21.229Z,17.60
2023-03-21T19:12:31.291Z,18.10
2023-03-21T19:12:41.979Z,16.70
2023-03-21T19:12:51.494Z,16.00
2023-03-21T19:13:01.575Z,16.30
2023-03-21T19:13:11.695Z,17.10
2023-03-21T19:13:21.931Z,18.20
2023-03-21T19:13:32.041Z,17.50
2023-03-21T19:13:43.030Z,16.80
2023-03-21T19:13:52.140Z,16.40
2023-03-21T19:14:02.356Z,16.30
2023-03-21T19:14:13.482Z,15.70
2023-03-21T19:14:22.561Z,16.10
2023-03-21T19:14:33.429Z,17.00
2023-03-21T19:14:42.828Z,17.70
2023-03-21T19:14:52.944Z,17.80
2023-03-21T19:15:03.999Z,17.70
2023-03-21T19:15:13.548Z,18.40
2023-03-21T19:15:23.609Z,18.80
2023-03-21T19:15:33.941Z,17.80
